Steilacoom, Washington
Current Conditions -  °F | °C
As of 10:03 AM on Wednesday 28 Jan 2015 (Local Time) from KTCM Reporting Station
Overcast Overcast  
Wind Chill:   Ceiling: 700
Heat Index:   Visibility: 10mi
Dew Point:   Wind: 5mph
Humidity: 100%   Direction: 50°NE
Pressure: 30.38"   Gusts: NA
Location:  47.17°N, 122.59°W
Report Text: KTCM 281803Z AUTO 05004KT 10SM OVC007 08/08 A3038 RMK AO2
Loading
Personal Weather Stations






























Interactive Weather Map New forecast layout! Learn more

10-Day Weather Forecast

Advertisements
Track Severe Weather on mobile